Terminal Aerodrome Forecast
Issued by NWS

Home | Current Version | Previous Version | Text Only | Print | Product List | Glossary On
Versions: 1 2 3 4 5 6 7 8 9 10 11 12 13 14 15 16 17 18 19 20 21 22
000
FTUS43 KAPX 011700 RRA
TAFAPN
TAF
KAPN 011740Z 0118/0218 19011G22KT P6SM SCT020 SCT150
     FM012000 22010G18KT 6SM TSRA BKN035CB
     FM012200 23006KT P6SM -SHRA OVC035
     FM020200 25006KT P6SM OVC020
     FM021400 26005KT P6SM SCT040=

USA.gov is the U.S. government's official web portal to all federal, state and local government web resources and services.